createdAt,value
2018-06-30T01:02:17.469Z,99.90
2018-06-30T01:04:45.999Z,99.90
2018-06-30T01:07:14.595Z,99.90
2018-06-30T01:09:44.631Z,99.90
2018-06-30T01:12:13.221Z,99.90
2018-06-30T01:14:41.611Z,99.90
2018-06-30T01:17:10.132Z,99.90
2018-06-30T01:19:39.032Z,99.90
2018-06-30T01:22:07.734Z,99.90
2018-06-30T01:24:36.728Z,99.90
2018-06-30T01:27:06.529Z,99.90
2018-06-30T01:29:34.993Z,99.90
2018-06-30T01:32:03.751Z,99.90
2018-06-30T01:34:32.832Z,99.90
2018-06-30T01:37:01.512Z,99.90
2018-06-30T01:39:32.069Z,99.90
2018-06-30T01:42:00.494Z,99.90
2018-06-30T01:44:29.366Z,99.90
2018-06-30T01:46:57.864Z,99.90
2018-06-30T01:49:26.304Z,99.90
2018-06-30T01:51:55.469Z,99.90
2018-06-30T01:54:24.035Z,99.90
2018-06-30T01:56:52.435Z,99.90
2018-06-30T01:59:21.239Z,99.90
2018-06-30T02:01:49.746Z,99.90
2018-06-30T02:04:18.473Z,99.90
2018-06-30T02:06:47.180Z,99.90
2018-06-30T02:09:16.370Z,99.90
2018-06-30T02:11:44.861Z,99.90
2018-06-30T02:14:13.863Z,99.90
2018-06-30T02:16:42.690Z,99.90
2018-06-30T02:19:11.157Z,99.90
2018-06-30T02:21:39.833Z,99.90
2018-06-30T02:24:08.237Z,99.90
2018-06-30T02:26:36.911Z,99.90
2018-06-30T02:29:05.428Z,99.90
2018-06-30T02:31:33.872Z,99.90
2018-06-30T02:34:02.507Z,99.90
2018-06-30T02:36:31.152Z,99.90
2018-06-30T02:39:00.110Z,99.90
2018-06-30T02:41:28.628Z,99.90
2018-06-30T02:43:57.176Z,99.90
2018-06-30T02:46:26.931Z,99.90
2018-06-30T02:48:55.464Z,99.90
2018-06-30T02:51:23.907Z,99.90
2018-06-30T02:53:52.319Z,99.90
2018-06-30T02:56:21.039Z,99.90
2018-06-30T02:58:49.751Z,99.90
2018-06-30T03:01:18.381Z,99.90
2018-06-30T03:03:46.951Z,99.90
2018-06-30T03:06:15.328Z,99.90
2018-06-30T03:08:43.977Z,99.90
2018-06-30T03:11:12.901Z,99.90
2018-06-30T03:13:41.320Z,99.90
2018-06-30T03:16:09.982Z,99.90
2018-06-30T03:18:38.528Z,99.90
2018-06-30T03:21:07.287Z,99.90
2018-06-30T03:23:36.066Z,99.90
2018-06-30T03:26:04.790Z,99.90
2018-06-30T03:28:33.172Z,99.90
2018-06-30T03:31:01.598Z,99.90
2018-06-30T03:33:30.536Z,99.90
2018-06-30T03:35:59.476Z,99.90
2018-06-30T03:38:28.859Z,99.90
2018-06-30T03:45:54.340Z,99.90
2018-06-30T03:48:22.724Z,99.90
2018-06-30T03:50:51.187Z,99.90
2018-06-30T03:53:21.177Z,99.90
2018-06-30T03:55:50.248Z,99.90
2018-06-30T03:58:18.631Z,99.90
2018-06-30T04:00:49.731Z,99.90
2018-06-30T04:03:18.546Z,99.90
2018-06-30T04:05:47.305Z,99.90
2018-06-30T04:08:15.939Z,99.90
2018-06-30T04:10:44.961Z,99.90
2018-06-30T04:13:13.818Z,99.90
2018-06-30T04:15:42.359Z,99.90
2018-06-30T04:18:10.861Z,99.90
2018-06-30T04:20:40.239Z,99.90
2018-06-30T04:23:09.096Z,99.90
2018-06-30T04:25:38.718Z,99.90
2018-06-30T04:28:08.640Z,99.90
2018-06-30T04:30:37.282Z,99.90
2018-06-30T04:33:06.308Z,99.90
2018-06-30T04:35:34.778Z,99.90
2018-06-30T04:38:04.084Z,99.90
2018-06-30T04:40:33.109Z,99.90
2018-06-30T04:43:02.308Z,99.90
2018-06-30T04:45:30.943Z,99.90
2018-06-30T04:47:59.346Z,99.90
2018-06-30T04:50:27.745Z,99.90
2018-06-30T04:52:56.276Z,99.90
2018-06-30T04:55:25.131Z,99.90
2018-06-30T04:57:53.648Z,99.90
2018-06-30T05:00:22.095Z,99.90
2018-06-30T05:02:51.720Z,99.90
2018-06-30T05:05:20.144Z,99.90
2018-06-30T05:07:48.790Z,99.90
2018-06-30T05:10:17.191Z,99.90
2018-06-30T05:12:45.750Z,99.90
2018-06-30T05:15:14.728Z,99.90
2018-06-30T05:17:43.158Z,99.90
2018-06-30T05:20:11.761Z,99.90
2018-06-30T05:22:40.185Z,99.90
2018-06-30T05:25:09.024Z,99.90
2018-06-30T05:27:37.497Z,99.90
2018-06-30T05:30:07.374Z,99.90
2018-06-30T05:32:35.946Z,99.90
2018-06-30T05:35:04.688Z,99.90
2018-06-30T05:37:36.191Z,99.90
2018-06-30T05:40:04.904Z,99.90
2018-06-30T05:42:33.336Z,99.90
2018-06-30T05:47:30.034Z,99.90
2018-06-30T05:49:59.101Z,99.90
2018-06-30T05:52:28.474Z,99.90
2018-06-30T05:54:56.882Z,99.90
2018-06-30T05:57:25.828Z,99.90
2018-06-30T05:59:55.211Z,99.90
2018-06-30T06:02:23.792Z,99.90
2018-06-30T06:04:52.854Z,99.90
2018-06-30T06:07:22.169Z,99.90
2018-06-30T06:09:50.905Z,99.90
2018-06-30T06:12:19.232Z,99.90
2018-06-30T06:14:48.941Z,99.90
2018-06-30T06:17:17.379Z,99.90
2018-06-30T06:19:46.807Z,99.90
2018-06-30T06:22:15.633Z,99.90
2018-06-30T06:24:44.480Z,99.90
2018-06-30T06:27:12.888Z,99.90
2018-06-30T06:29:41.769Z,99.90
2018-06-30T06:32:11.350Z,99.90
2018-06-30T06:34:40.778Z,99.90
2018-06-30T06:37:10.230Z,99.90
2018-06-30T06:39:38.749Z,99.90
2018-06-30T06:42:07.225Z,99.90
2018-06-30T06:44:35.745Z,99.90
2018-06-30T06:47:04.288Z,99.90
2018-06-30T06:49:32.984Z,99.90
2018-06-30T06:52:01.539Z,99.90
2018-06-30T06:54:30.027Z,99.90
2018-06-30T06:56:58.632Z,99.90
2018-06-30T06:59:28.272Z,99.90
2018-06-30T07:01:56.864Z,99.90
2018-06-30T07:04:25.266Z,99.90
2018-06-30T07:12:15.871Z,99.90
2018-06-30T07:14:44.941Z,99.90
2018-06-30T07:17:13.835Z,99.90
2018-06-30T07:19:43.602Z,99.90
2018-06-30T07:22:12.074Z,99.90
2018-06-30T07:24:40.520Z,99.90
2018-06-30T07:27:09.204Z,99.90
2018-06-30T07:29:38.094Z,99.90
2018-06-30T07:32:06.501Z,99.90
2018-06-30T07:34:35.083Z,99.90
2018-06-30T07:37:03.639Z,99.90
2018-06-30T07:39:32.805Z,99.90
2018-06-30T07:42:01.308Z,99.90
2018-06-30T07:44:30.354Z,99.90
2018-06-30T07:46:58.776Z,99.90
2018-06-30T07:49:27.266Z,99.90
2018-06-30T07:54:24.299Z,99.90
2018-06-30T07:56:53.355Z,99.90
2018-06-30T07:59:22.820Z,99.90
2018-06-30T08:01:51.794Z,99.90
2018-06-30T08:04:20.300Z,99.90
2018-06-30T08:06:48.821Z,99.90
2018-06-30T08:09:17.283Z,99.90
2018-06-30T08:11:46.210Z,99.90
2018-06-30T08:14:14.870Z,99.90
2018-06-30T08:16:43.730Z,99.90
2018-06-30T08:19:12.193Z,99.90
2018-06-30T08:21:40.896Z,99.90
2018-06-30T08:24:09.830Z,99.90
2018-06-30T08:26:38.231Z,99.90
2018-06-30T08:29:06.682Z,99.90
2018-06-30T08:31:35.124Z,99.90
2018-06-30T08:34:03.965Z,99.90
2018-06-30T08:36:32.529Z,97.30
2018-06-30T08:39:01.414Z,93.40
2018-06-30T08:41:29.887Z,91.90
2018-06-30T08:43:58.354Z,80.90
2018-06-30T08:46:27.186Z,74.20
2018-06-30T08:48:55.590Z,82.70
2018-06-30T08:51:24.064Z,72.80
2018-06-30T08:53:52.705Z,81.00
2018-06-30T08:56:21.201Z,71.10
2018-06-30T08:58:49.621Z,69.40
2018-06-30T09:01:18.437Z,67.10
2018-06-30T09:03:47.357Z,67.00
2018-06-30T09:06:15.952Z,68.20
2018-06-30T09:08:44.519Z,61.80
2018-06-30T09:11:13.141Z,61.00
2018-06-30T09:13:41.781Z,63.00
2018-06-30T09:16:10.740Z,61.90
2018-06-30T09:18:39.625Z,61.70
2018-06-30T09:21:08.737Z,59.90
2018-06-30T09:23:37.148Z,59.30
2018-06-30T09:26:05.857Z,59.70
2018-06-30T09:28:34.859Z,55.90
2018-06-30T09:31:03.327Z,56.70
2018-06-30T09:33:32.331Z,53.50
2018-06-30T09:36:01.260Z,51.10
2018-06-30T09:38:29.753Z,51.70
2018-06-30T09:40:58.740Z,46.40
2018-06-30T09:43:27.167Z,49.00
2018-06-30T09:45:55.790Z,51.40
2018-06-30T09:48:24.168Z,51.30
2018-06-30T09:53:20.922Z,48.70
2018-06-30T09:55:49.775Z,48.80
2018-06-30T09:58:18.361Z,43.60
2018-06-30T10:00:55.608Z,43.90
2018-06-30T10:03:24.961Z,44.40
2018-06-30T10:05:53.425Z,42.60
2018-06-30T10:08:22.580Z,43.20
2018-06-30T10:10:51.082Z,47.30
2018-06-30T10:13:20.302Z,49.50
2018-06-30T10:15:49.267Z,46.50
2018-06-30T10:18:17.665Z,43.60
2018-06-30T10:20:47.481Z,39.30
2018-06-30T10:23:15.867Z,40.80
2018-06-30T10:25:44.386Z,42.80
2018-06-30T10:28:12.852Z,42.40
2018-06-30T10:30:41.782Z,42.20
2018-06-30T10:33:11.051Z,43.90
2018-06-30T10:35:40.302Z,43.00
2018-06-30T10:38:09.056Z,39.40
2018-06-30T10:40:38.097Z,41.60
2018-06-30T10:43:06.716Z,42.20
2018-06-30T10:45:35.174Z,44.60
2018-06-30T10:48:04.113Z,48.20
2018-06-30T10:50:33.067Z,47.50
2018-06-30T10:53:02.005Z,49.80
2018-06-30T10:55:30.953Z,46.20
2018-06-30T10:57:59.520Z,43.90
2018-06-30T11:00:28.189Z,42.30
2018-06-30T11:03:00.262Z,43.20
2018-06-30T11:05:28.788Z,43.00
2018-06-30T11:07:57.255Z,44.00
2018-06-30T11:10:26.026Z,45.50
2018-06-30T11:12:55.124Z,45.50
2018-06-30T11:15:24.069Z,50.40
2018-06-30T11:17:52.840Z,49.20
2018-06-30T11:20:26.053Z,48.30
2018-06-30T11:22:54.676Z,48.70
2018-06-30T11:25:28.877Z,51.00
2018-06-30T11:27:57.784Z,50.70
2018-06-30T11:30:27.918Z,50.60
2018-06-30T11:32:56.586Z,50.50
2018-06-30T11:35:24.988Z,54.60
2018-06-30T11:37:54.212Z,54.30
2018-06-30T11:40:22.906Z,54.80
2018-06-30T11:42:51.538Z,53.00
2018-06-30T11:45:19.980Z,56.20
2018-06-30T11:47:49.620Z,54.40
2018-06-30T11:50:18.820Z,51.50
2018-06-30T11:52:47.541Z,54.20
2018-06-30T11:55:15.946Z,54.40
2018-06-30T11:57:44.468Z,54.60
2018-06-30T12:00:14.252Z,57.90
2018-06-30T12:02:42.797Z,57.10
2018-06-30T12:05:11.434Z,57.30
2018-06-30T12:07:39.869Z,54.90
2018-06-30T12:10:09.392Z,55.40
2018-06-30T12:12:37.825Z,58.30
2018-06-30T12:15:06.600Z,60.70
2018-06-30T12:17:35.217Z,59.00
2018-06-30T12:20:03.815Z,58.90
2018-06-30T12:22:32.530Z,61.70
2018-06-30T12:25:01.234Z,59.40
2018-06-30T12:27:30.395Z,61.10
2018-06-30T12:29:58.946Z,59.40
2018-06-30T12:32:28.547Z,59.00
2018-06-30T12:34:57.004Z,61.70
2018-06-30T12:37:26.704Z,60.00
2018-06-30T12:39:55.710Z,60.50
2018-06-30T12:42:24.163Z,62.00
2018-06-30T12:44:53.122Z,65.50
2018-06-30T12:47:22.044Z,62.90
2018-06-30T12:49:51.418Z,64.30
2018-06-30T12:52:20.372Z,62.10
2018-06-30T12:54:49.041Z,65.50
2018-06-30T12:57:17.701Z,62.70
2018-06-30T12:59:48.263Z,63.60
2018-06-30T13:02:17.236Z,65.70
2018-06-30T13:04:46.426Z,61.90
2018-06-30T13:07:15.710Z,65.30
2018-06-30T13:09:44.203Z,63.60
2018-06-30T13:12:12.695Z,67.50
2018-06-30T13:14:41.115Z,68.70
2018-06-30T13:17:10.293Z,64.90
2018-06-30T13:19:39.237Z,61.90
2018-06-30T13:22:09.138Z,64.10
2018-06-30T13:24:38.145Z,62.20
2018-06-30T13:27:06.783Z,64.80
2018-06-30T13:29:35.430Z,65.20
2018-06-30T13:32:04.540Z,63.70
2018-06-30T13:34:35.873Z,60.40
2018-06-30T13:37:04.548Z,64.90
2018-06-30T13:39:33.329Z,60.50
2018-06-30T13:42:01.915Z,61.30
2018-06-30T13:44:32.224Z,61.20
2018-06-30T13:47:01.150Z,64.60
2018-06-30T13:49:29.712Z,62.20
2018-06-30T13:51:58.601Z,60.30
2018-06-30T13:54:27.496Z,64.00
2018-06-30T13:56:56.211Z,61.20
2018-06-30T13:59:25.016Z,60.20
2018-06-30T14:01:53.710Z,63.00
2018-06-30T14:04:22.143Z,60.90
2018-06-30T14:06:51.261Z,62.30
2018-06-30T14:09:20.103Z,65.00
2018-06-30T14:14:17.961Z,62.30
2018-06-30T14:16:46.942Z,61.60
2018-06-30T14:19:15.406Z,59.50
2018-06-30T14:21:43.955Z,59.40
2018-06-30T14:24:12.591Z,59.20
2018-06-30T14:26:41.284Z,60.00
2018-06-30T14:29:09.900Z,60.30
2018-06-30T14:31:38.468Z,61.80
2018-06-30T14:34:07.385Z,61.60
2018-06-30T14:36:35.905Z,61.50
2018-06-30T14:39:07.458Z,64.50
2018-06-30T14:41:36.446Z,63.90
2018-06-30T14:44:05.123Z,61.10
2018-06-30T14:46:35.329Z,63.00
2018-06-30T14:49:04.826Z,64.30
2018-06-30T14:51:33.895Z,65.30
2018-06-30T14:54:03.329Z,64.40
2018-06-30T14:56:32.103Z,65.70
2018-06-30T15:01:29.724Z,66.30
2018-06-30T15:03:58.876Z,64.70
2018-06-30T15:06:27.778Z,65.40
2018-06-30T15:08:56.573Z,65.00
2018-06-30T15:11:25.020Z,65.10
2018-06-30T15:13:54.363Z,65.30
2018-06-30T15:16:22.769Z,62.40
2018-06-30T15:18:51.281Z,61.90
2018-06-30T15:21:20.314Z,64.00
2018-06-30T15:23:49.046Z,63.20
2018-06-30T15:26:17.533Z,61.70
2018-06-30T15:28:46.096Z,60.50
2018-06-30T15:31:15.235Z,63.20
2018-06-30T15:33:43.776Z,64.50
2018-06-30T15:36:12.631Z,62.90
2018-06-30T15:38:41.387Z,64.30
2018-06-30T15:43:38.347Z,63.60
2018-06-30T15:46:07.980Z,63.50
2018-06-30T15:48:36.561Z,64.60
2018-06-30T15:51:05.974Z,62.20
2018-06-30T15:53:34.401Z,62.20
2018-06-30T15:56:03.441Z,65.10
2018-06-30T15:58:32.092Z,62.70
2018-06-30T16:01:00.822Z,62.60
2018-06-30T16:03:29.802Z,65.10
2018-06-30T16:05:58.265Z,62.80
2018-06-30T16:08:26.696Z,63.50
2018-06-30T16:10:55.119Z,59.80
2018-06-30T16:15:52.949Z,60.60
2018-06-30T16:18:21.924Z,61.90
2018-06-30T16:23:19.236Z,59.60
2018-06-30T16:25:47.979Z,58.30
2018-06-30T16:28:16.807Z,58.00
2018-06-30T16:30:45.425Z,59.10
2018-06-30T16:33:14.153Z,56.60
2018-06-30T16:35:43.793Z,55.70
2018-06-30T16:38:12.311Z,56.00
2018-06-30T16:40:41.005Z,55.50
2018-06-30T16:43:09.778Z,54.80
2018-06-30T16:45:38.397Z,55.50
2018-06-30T16:48:07.252Z,55.50
2018-06-30T16:50:35.913Z,53.20
2018-06-30T16:53:05.018Z,55.00
2018-06-30T16:55:33.457Z,52.20
2018-06-30T16:58:02.320Z,51.60
2018-06-30T17:00:30.772Z,51.70
2018-06-30T17:02:59.808Z,53.00
2018-06-30T17:05:28.595Z,52.20
2018-06-30T17:07:57.033Z,53.30
2018-06-30T17:10:25.837Z,54.50
2018-06-30T17:12:54.276Z,55.30
2018-06-30T17:15:22.792Z,53.30
2018-06-30T17:17:52.284Z,51.30
2018-06-30T17:20:21.343Z,52.50
2018-06-30T17:22:49.960Z,52.90
2018-06-30T17:25:18.560Z,52.70
2018-06-30T17:27:47.178Z,49.90
2018-06-30T17:30:15.622Z,48.20
2018-06-30T17:32:44.624Z,49.00
2018-06-30T17:35:13.496Z,51.20
2018-06-30T17:37:42.388Z,50.50
2018-06-30T17:40:11.193Z,48.30
2018-06-30T17:42:40.135Z,50.10
2018-06-30T17:45:09.670Z,50.00
2018-06-30T17:47:39.572Z,50.10
2018-06-30T17:50:08.103Z,48.50
2018-06-30T17:52:37.214Z,50.10
2018-06-30T17:55:06.515Z,50.40
2018-06-30T17:57:35.217Z,51.20
2018-06-30T18:00:05.939Z,52.70
2018-06-30T18:02:34.431Z,50.60
2018-06-30T18:05:03.508Z,50.50
2018-06-30T18:07:32.261Z,53.00
2018-06-30T18:12:30.064Z,51.50
2018-06-30T18:14:58.942Z,52.30
2018-06-30T18:17:27.670Z,51.00
2018-06-30T18:19:56.573Z,51.70
2018-06-30T18:22:25.608Z,51.90
2018-06-30T18:24:54.576Z,52.10
2018-06-30T18:27:26.912Z,52.90
2018-06-30T18:29:55.548Z,51.40
2018-06-30T18:32:24.312Z,51.40
2018-06-30T18:34:53.865Z,50.90
2018-06-30T18:37:22.713Z,51.20
2018-06-30T18:39:51.165Z,53.50
2018-06-30T18:42:19.663Z,54.30
2018-06-30T18:44:48.686Z,53.10
2018-06-30T18:47:17.538Z,53.70
2018-06-30T18:49:45.975Z,53.50
2018-06-30T18:52:16.184Z,52.60
2018-06-30T18:54:44.832Z,53.30
2018-06-30T18:57:13.460Z,54.00
2018-06-30T18:59:42.032Z,53.30
2018-06-30T19:02:10.767Z,54.10
2018-06-30T19:04:39.394Z,52.90
2018-06-30T19:07:07.980Z,55.00
2018-06-30T19:09:37.649Z,54.60
2018-06-30T19:12:06.858Z,52.90
2018-06-30T19:14:35.256Z,54.20
2018-06-30T19:17:03.870Z,54.80
2018-06-30T19:19:32.552Z,53.90
2018-06-30T19:22:02.274Z,54.90
2018-06-30T19:24:31.064Z,53.60
2018-06-30T19:27:00.270Z,52.70
2018-06-30T19:29:29.241Z,53.20
2018-06-30T19:31:58.258Z,53.20
2018-06-30T19:34:27.385Z,52.60
2018-06-30T19:36:56.560Z,53.30
2018-06-30T19:39:25.141Z,53.20
2018-06-30T19:41:54.566Z,54.90
2018-06-30T19:44:24.264Z,57.10
2018-06-30T19:46:53.374Z,57.00
2018-06-30T19:49:21.968Z,56.20
2018-06-30T19:51:50.444Z,54.70
2018-06-30T19:54:19.221Z,55.50
2018-06-30T19:56:48.065Z,54.30
2018-06-30T19:59:17.502Z,55.00
2018-06-30T20:01:46.921Z,54.70
2018-06-30T20:04:16.330Z,59.40
2018-06-30T20:06:45.658Z,59.00
2018-06-30T20:09:14.254Z,57.20
2018-06-30T20:11:43.247Z,58.20
2018-06-30T20:14:12.040Z,57.40
2018-06-30T20:16:40.902Z,56.60
2018-06-30T20:19:09.646Z,58.30
2018-06-30T20:21:38.210Z,57.90
2018-06-30T20:24:06.908Z,59.60
2018-06-30T20:26:35.790Z,59.30
2018-06-30T20:29:04.585Z,59.10
2018-06-30T20:31:33.205Z,59.80
2018-06-30T20:34:02.168Z,58.60
2018-06-30T20:36:30.768Z,58.30
2018-06-30T20:39:00.008Z,59.10
2018-06-30T20:41:28.554Z,60.80
2018-06-30T20:43:57.599Z,60.70
2018-06-30T20:46:26.901Z,62.20
2018-06-30T20:48:55.706Z,61.80
2018-06-30T20:51:24.737Z,61.90
2018-06-30T20:53:53.505Z,61.30
2018-06-30T20:56:21.996Z,62.50
2018-06-30T20:58:50.468Z,63.00
2018-06-30T21:01:19.296Z,63.80
2018-06-30T21:03:47.753Z,65.20
2018-06-30T21:06:16.131Z,66.10
2018-06-30T21:08:44.846Z,63.80
2018-06-30T21:11:13.508Z,65.80
2018-06-30T21:13:42.172Z,66.40
2018-06-30T21:16:11.013Z,67.80
2018-06-30T21:18:39.856Z,68.10
2018-06-30T21:21:08.722Z,68.50
2018-06-30T21:23:37.665Z,67.70
2018-06-30T21:26:06.226Z,71.20
2018-06-30T21:31:03.325Z,71.10
2018-06-30T21:33:32.161Z,69.40
2018-06-30T21:36:00.633Z,70.00
2018-06-30T21:38:29.996Z,72.30
2018-06-30T21:40:58.523Z,71.50
2018-06-30T21:43:26.959Z,71.00
2018-06-30T21:45:55.974Z,69.00
2018-06-30T21:48:24.870Z,70.60
2018-06-30T21:50:53.748Z,69.60
2018-06-30T21:53:22.158Z,69.70
